Grand Ridge, IL (61325)

5:34 AM CDT on August 27, 2016 (GMT -0500)
APRSWXNET | | Change Station

Elev 620 ft 41.24 °N, 88.83 °W | Updated 20 minutes ago

Light Rain
Light Rain
68 °F
Feels Like 68 °F
N
1
Wind Variable Wind from North
Gusts 3.0 mph

Today
High -- | Low -- °F
--% Chance of Precip.
Yesterday
High -- | Low -- °F
Precip. -- in
Pressure 30.04 in
Visibility 5.0 miles
Clouds Scattered Clouds 4400 ft
Mostly Cloudy 7000 ft
Overcast 8500 ft
Dew Point 67 °F
Humidity 97%
Rainfall in
Snow Depth Not available.
6:17 AM 7:35 PM
Waning Crescent, 25% visible
METAR KVYS 271015Z AUTO 11006KT 5SM -RA SCT044 BKN070 OVC085 20/20 A3004 RMK AO2 P0002 T02030203
Pressure 30.04 in
Visibility 5.0 miles
Clouds Scattered Clouds 4400 ft
Mostly Cloudy 7000 ft
Overcast 8500 ft
Dew Point 67 °F
Humidity 97%
Rainfall in
Snow Depth Not available.
6:17 AM 7:35 PM
Waning Crescent, 25% visible
METAR KVYS 271015Z AUTO 11006KT 5SM -RA SCT044 BKN070 OVC085 20/20 A3004 RMK AO2 P0002 T02030203

10-Day Weather Forecast

Almanac

Astronomy

Aug. 27, 2016 Rise Set
Actual Time
Civil Twilight
Nautical Twilight
Astronomical Twilight
Moon
Length of Visible Light
Length of Day
Tomorrow will be .
, % of the Moon is Illuminated

Today's Extremes

State Highs State Lows

Community

WunderPhotos

Upload Photos

1,935,321 photos uploaded!

WunderBlog® & News

Nearby

Air Quality

  Air Quality AQ Index Pollutant
Not available.

Snow Depth

Station Depth Elevation

Earthquake Activity

City Distance Mag. Time & Date
Minimum magnitude displayed is 2.5.

Coastal Water Temperatures

Place Temperature

Stations

Nearby Weather Stations

Station Location Temp. Windchill Dew Point Humidity Wind Precip. Elev Updated Type
                   

Watches & Warnings

There are currently no watches in effect.